Nearby METAR Reports

 

EGNM - Leeds And Bradford, United Kingdom
Distance from station: N 11mi, 18km
Updated: 01/08/2021 19:20
Few Clouds
Few Clouds
 Wind from NNE
Wind: NNE 5 mph , 7 km/h
Temperature: 14°C
Dew Point: 8°C
Humidity: 67%
Barometer: 1014 hPa
Clouds: Few Clouds
Visibility: 6 miles , 10 km
Cloud details: Few Clouds 1219 m
2021/08/01 19:20 EGNM 011920Z 03004KT 9999 FEW040 14/08 Q1014
EGXU - Linton-On-Ouse, United Kingdom
Distance from station: NNE 28mi, 45km
Updated: 01/08/2021 18:50
Few Clouds
Few Clouds
 Wind from NNE
Wind: NNE 9 mph , 15 km/h
Temperature: 16°C
Dew Point: 8°C
Humidity: 59%
Barometer: 1014 hPa
Clouds: Few Clouds
Visibility: 6 miles , 10 km
Cloud details: Few Clouds 1372 m
2021/08/01 18:50 EGXU 011850Z AUTO 02008KT 9999 FEW045/// 16/08 Q1014
 
EGCN - Doncaster Sheffield, United Kingdom
Distance from station: ESE 30mi, 45km
Updated: 01/08/2021 19:20
Few Clouds
Few Clouds
 Wind from NE
Wind: NE 5 mph , 7 km/h
Temperature: 15°C
Dew Point: 11°C
Humidity: 77%
Barometer: 1015 hPa
Clouds: Few Clouds
Visibility: 6 miles , 10 km
Cloud details: Few Clouds 1097 m
2021/08/01 19:20 EGCN 011920Z 04004KT 9999 FEW036 15/11 Q1015
EGXZ - Topcliffe RAF, United Kingdom
Distance from station: NNE 36mi, 57km
Updated: 01/08/2021 18:50
Few Clouds
Few Clouds
 Wind from NNE
Wind: NNE 7 mph , 11 km/h
Temperature: 14°C
Dew Point: 8°C
Humidity: 67%
Barometer: 1014 hPa
Clouds: Few Clouds
Visibility: 6 miles , 10 km
Cloud details: Few Clouds 1524 m
2021/08/01 18:50 EGXZ 011850Z AUTO 03006KT 9999 FEW050/// 14/08 Q1014
 
EGCC - Manchester Intl, United Kingdom
Distance from station: SW 36mi, 58km
Updated: 01/08/2021 19:20
Mostly cloudy
Mostly cloudy
 Wind from ENE
Wind: ENE 3 mph , 6 km/h
Temperature: 16°C
Dew Point: 11°C
Humidity: 72%
Barometer: 1014 hPa
Clouds: Mostly cloudy
Visibility: 6 miles , 10 km
Cloud details: Partly cloudy 1219 m
Mostly cloudy 1402 m
2021/08/01 19:20 EGCC 011920Z AUTO 07003KT 9999 SCT040 BKN046 16/11 Q1014
EGXE - Leeming RAF, United Kingdom
Distance from station: N 40mi, 65km
Updated: 01/08/2021 18:50
Partly cloudy
Partly cloudy
 Wind from NNE
Wind: NNE 8 mph , 13 km/h
Temperature: 14°C
Dew Point: 8°C
Humidity: 67%
Barometer: 1014 hPa
Clouds: Partly cloudy
Visibility: 6 miles , 10 km
Cloud details: Partly cloudy 1524 m
2021/08/01 18:50 EGXE 011850Z AUTO 02007KT 9999 SCT050/// 14/08 Q1014